createdAt,value
2018-05-25T00:00:22.827Z,1001.43
2018-05-25T00:01:22.822Z,1001.45
2018-05-25T00:02:22.821Z,1001.45
2018-05-25T00:03:22.812Z,1001.44
2018-05-25T00:04:22.807Z,1001.37
2018-05-25T00:05:22.802Z,1001.37
2018-05-25T00:06:22.796Z,1001.39
2018-05-25T00:07:22.791Z,1001.40
2018-05-25T00:08:22.786Z,1001.35
2018-05-25T00:09:22.983Z,1001.39
2018-05-25T00:10:22.775Z,1001.33
2018-05-25T00:11:22.771Z,1001.32
2018-05-25T00:12:22.765Z,1001.32
2018-05-25T00:13:22.761Z,1001.32
2018-05-25T00:14:22.755Z,1001.31
2018-05-25T00:15:22.750Z,1001.30
2018-05-25T00:16:22.745Z,1001.26
2018-05-25T00:17:22.740Z,1001.27
2018-05-25T00:18:22.734Z,1001.25
2018-05-25T00:19:22.936Z,1001.27
2018-05-25T00:20:22.724Z,1001.24
2018-05-25T00:21:22.720Z,1001.25
2018-05-25T00:22:22.714Z,1001.26
2018-05-25T00:23:22.709Z,1001.26
2018-05-25T00:24:22.706Z,1001.26
2018-05-25T00:25:22.699Z,1001.26
2018-05-25T00:26:22.693Z,1001.27
2018-05-25T00:27:22.689Z,1001.25
2018-05-25T00:28:22.683Z,1001.26
2018-05-25T00:29:22.678Z,1001.25
2018-05-25T00:30:22.675Z,1001.25
2018-05-25T00:31:22.667Z,1001.25
2018-05-25T00:32:22.663Z,1001.24
2018-05-25T00:33:22.659Z,1001.24
2018-05-25T00:34:22.651Z,1001.27
2018-05-25T00:35:22.645Z,1001.25
2018-05-25T00:36:22.641Z,1001.22
2018-05-25T00:37:22.635Z,1001.20
2018-05-25T00:38:22.629Z,1001.18
2018-05-25T00:39:22.624Z,1001.18
2018-05-25T00:40:22.623Z,1001.17
2018-05-25T00:41:22.613Z,1001.23
2018-05-25T00:42:22.606Z,1001.20
2018-05-25T00:43:22.602Z,1001.24
2018-05-25T00:44:22.597Z,1001.24
2018-05-25T00:45:22.591Z,1001.23
2018-05-25T00:46:22.585Z,1001.27
2018-05-25T00:47:22.580Z,1001.28
2018-05-25T00:48:22.574Z,1001.27
2018-05-25T00:49:22.569Z,1001.29
2018-05-25T00:50:22.567Z,1001.27
2018-05-25T00:51:22.557Z,1001.23
2018-05-25T00:52:22.552Z,1001.24
2018-05-25T00:53:22.547Z,1001.21
2018-05-25T00:54:22.543Z,1001.23
2018-05-25T00:55:22.537Z,1001.21
2018-05-25T00:56:22.530Z,1001.19
2018-05-25T00:57:22.526Z,1001.20
2018-05-25T00:58:22.519Z,1001.20
2018-05-25T00:59:22.514Z,1001.24
2018-05-25T01:00:22.508Z,1001.22
2018-05-25T01:01:22.505Z,1001.19
2018-05-25T01:02:22.496Z,1001.23
2018-05-25T01:03:22.492Z,1001.19
2018-05-25T01:04:22.489Z,1001.17
2018-05-25T01:05:22.481Z,1001.18
2018-05-25T01:06:22.475Z,1001.19
2018-05-25T01:07:22.469Z,1001.18
2018-05-25T01:08:22.465Z,1001.21
2018-05-25T01:09:22.459Z,1001.15
2018-05-25T01:10:22.453Z,1001.20
2018-05-25T01:11:22.450Z,1001.18
2018-05-25T01:12:22.442Z,1001.18
2018-05-25T01:13:22.438Z,1001.15
2018-05-25T01:14:22.430Z,1001.16
2018-05-25T01:15:22.428Z,1001.16
2018-05-25T01:16:22.419Z,1001.18
2018-05-25T01:17:22.414Z,1001.20
2018-05-25T01:18:22.408Z,1001.16
2018-05-25T01:19:22.402Z,1001.17
2018-05-25T01:20:22.396Z,1001.14
2018-05-25T01:21:22.393Z,1001.14
2018-05-25T01:22:22.387Z,1001.17
2018-05-25T01:23:22.380Z,1001.15
2018-05-25T01:24:22.374Z,1001.12
2018-05-25T01:25:22.371Z,1001.14
2018-05-25T01:26:22.362Z,1001.17
2018-05-25T01:27:22.357Z,1001.18
2018-05-25T01:28:22.351Z,1001.16
2018-05-25T01:29:22.346Z,1001.19
2018-05-25T01:30:22.341Z,1001.13
2018-05-25T01:31:22.333Z,1001.16
2018-05-25T01:32:22.327Z,1001.21
2018-05-25T01:33:22.322Z,1001.17
2018-05-25T01:34:22.315Z,1001.16
2018-05-25T01:35:22.310Z,1001.20
2018-05-25T01:36:22.304Z,1001.15
2018-05-25T01:37:22.301Z,1001.14
2018-05-25T01:38:22.293Z,1001.14
2018-05-25T01:39:22.286Z,1001.14
2018-05-25T01:40:22.280Z,1001.16
2018-05-25T01:41:22.276Z,1001.16
2018-05-25T01:42:22.268Z,1001.17
2018-05-25T01:43:22.265Z,1001.15
2018-05-25T01:44:22.257Z,1001.17
2018-05-25T01:45:22.252Z,1001.17
2018-05-25T01:46:22.245Z,1001.18
2018-05-25T01:47:22.239Z,1001.19
2018-05-25T01:48:22.234Z,1001.18
2018-05-25T01:49:22.228Z,1001.16
2018-05-25T01:50:22.221Z,1001.15
2018-05-25T01:51:22.216Z,1001.15
2018-05-25T01:52:22.210Z,1001.19
2018-05-25T01:53:22.205Z,1001.17
2018-05-25T01:54:22.198Z,1001.16
2018-05-25T01:55:22.192Z,1001.15
2018-05-25T01:56:22.186Z,1001.12
2018-05-25T01:57:22.186Z,1001.15
2018-05-25T01:58:22.177Z,1001.15
2018-05-25T01:59:22.169Z,1001.14
2018-05-25T02:00:22.163Z,1001.14
2018-05-25T02:01:22.158Z,1001.18
2018-05-25T02:02:22.150Z,1001.20
2018-05-25T02:03:22.145Z,1001.19
2018-05-25T02:04:22.139Z,1001.19
2018-05-25T02:05:22.138Z,1001.20
2018-05-25T02:06:22.126Z,1001.21
2018-05-25T02:07:22.121Z,1001.21
2018-05-25T02:08:22.115Z,1001.21
2018-05-25T02:09:22.110Z,1001.18
2018-05-25T02:10:22.103Z,1001.16
2018-05-25T02:11:22.097Z,1001.22
2018-05-25T02:12:22.092Z,1001.21
2018-05-25T02:13:22.086Z,1001.20
2018-05-25T02:14:22.079Z,1001.23
2018-05-25T02:15:22.078Z,1001.21
2018-05-25T02:16:22.068Z,1001.23
2018-05-25T02:17:22.062Z,1001.22
2018-05-25T02:18:22.055Z,1001.21
2018-05-25T02:19:22.050Z,1001.24
2018-05-25T02:20:22.044Z,1001.26
2018-05-25T02:21:22.038Z,1001.28
2018-05-25T02:22:22.031Z,1001.28
2018-05-25T02:23:22.026Z,1001.31
2018-05-25T02:24:22.020Z,1001.32
2018-05-25T02:25:22.015Z,1001.31
2018-05-25T02:26:22.012Z,1001.30
2018-05-25T02:27:22.002Z,1001.32
2018-05-25T02:28:21.996Z,1001.37
2018-05-25T02:29:21.990Z,1001.33
2018-05-25T02:30:21.984Z,1001.34
2018-05-25T02:31:21.978Z,1001.32
2018-05-25T02:32:21.982Z,1001.33
2018-05-25T02:33:21.967Z,1001.34
2018-05-25T02:34:21.960Z,1001.34
2018-05-25T02:35:21.955Z,1001.29
2018-05-25T02:36:21.949Z,1001.30
2018-05-25T02:37:21.947Z,1001.30
2018-05-25T02:38:21.936Z,1001.31
2018-05-25T02:39:21.930Z,1001.28
2018-05-25T02:40:21.925Z,1001.28
2018-05-25T02:41:21.919Z,1001.27
2018-05-25T02:42:21.912Z,1001.29
2018-05-25T02:43:21.906Z,1001.29
2018-05-25T02:44:21.900Z,1001.29
2018-05-25T02:45:21.894Z,1001.30
2018-05-25T02:46:21.886Z,1001.27
2018-05-25T02:47:21.885Z,1001.28
2018-05-25T02:48:21.875Z,1001.31
2018-05-25T02:49:21.870Z,1001.29
2018-05-25T02:50:21.862Z,1001.30
2018-05-25T02:51:21.864Z,1001.30
2018-05-25T02:52:21.852Z,1001.29
2018-05-25T02:53:21.844Z,1001.26
2018-05-25T02:54:21.837Z,1001.25
2018-05-25T02:55:21.832Z,1001.26
2018-05-25T02:56:21.826Z,1001.24
2018-05-25T02:57:21.899Z,1001.23
2018-05-25T02:58:21.814Z,1001.27
2018-05-25T02:59:21.807Z,1001.26
2018-05-25T03:00:21.801Z,1001.28
2018-05-25T03:01:21.796Z,1001.26
2018-05-25T03:02:21.789Z,1001.25
2018-05-25T03:03:21.783Z,1001.27
2018-05-25T03:04:21.777Z,1001.26
2018-05-25T03:05:21.771Z,1001.26
2018-05-25T03:06:21.774Z,1001.30
2018-05-25T03:07:21.758Z,1001.29
2018-05-25T03:08:21.766Z,1001.33
2018-05-25T03:09:21.751Z,1001.33
2018-05-25T03:10:21.741Z,1001.34
2018-05-25T03:11:21.734Z,1001.35
2018-05-25T03:12:21.728Z,1001.39
2018-05-25T03:13:21.725Z,1001.39
2018-05-25T03:14:21.715Z,1001.38
2018-05-25T03:15:21.709Z,1001.37
2018-05-25T03:16:21.703Z,1001.37
2018-05-25T03:17:21.696Z,1001.39
2018-05-25T03:18:21.689Z,1001.40
2018-05-25T03:19:21.683Z,1001.37
2018-05-25T03:20:21.688Z,1001.36
2018-05-25T03:21:21.675Z,1001.33
2018-05-25T03:22:21.664Z,1001.33
2018-05-25T03:23:21.658Z,1001.32
2018-05-25T03:24:21.652Z,1001.29
2018-05-25T03:25:21.648Z,1001.30
2018-05-25T03:26:21.639Z,1001.31
2018-05-25T03:27:21.633Z,1001.30
2018-05-25T03:28:21.627Z,1001.31
2018-05-25T03:29:21.621Z,1001.27
2018-05-25T03:30:21.617Z,1001.34
2018-05-25T03:31:21.611Z,1001.34
2018-05-25T03:32:21.603Z,1001.32
2018-05-25T03:33:21.596Z,1001.32
2018-05-25T03:34:21.594Z,1001.30
2018-05-25T03:35:21.583Z,1001.33
2018-05-25T03:36:21.578Z,1001.35
2018-05-25T03:37:21.571Z,1001.38
2018-05-25T03:38:21.772Z,1001.38
2018-05-25T03:39:21.558Z,1001.39
2018-05-25T03:40:21.555Z,1001.40
2018-05-25T03:41:21.546Z,1001.37
2018-05-25T03:42:21.539Z,1001.34
2018-05-25T03:43:21.533Z,1001.34
2018-05-25T03:44:21.527Z,1001.32
2018-05-25T03:45:21.527Z,1001.31
2018-05-25T03:46:21.514Z,1001.32
2018-05-25T03:47:21.512Z,1001.32
2018-05-25T03:48:21.502Z,1001.34
2018-05-25T03:49:21.498Z,1001.34
2018-05-25T03:50:21.492Z,1001.35
2018-05-25T03:51:21.483Z,1001.36
2018-05-25T03:52:21.479Z,1001.35
2018-05-25T03:53:21.473Z,1001.40
2018-05-25T03:54:21.465Z,1001.41
2018-05-25T03:55:21.458Z,1001.46
2018-05-25T03:56:21.453Z,1001.47
2018-05-25T03:57:21.450Z,1001.44
2018-05-25T03:58:21.440Z,1001.44
2018-05-25T03:59:21.437Z,1001.41
2018-05-25T04:00:21.428Z,1001.43
2018-05-25T04:01:21.627Z,1001.40
2018-05-25T04:02:21.417Z,1001.40
2018-05-25T04:03:21.409Z,1001.38
2018-05-25T04:04:21.409Z,1001.40
2018-05-25T04:05:21.399Z,1001.46
2018-05-25T04:06:21.390Z,1001.46
2018-05-25T04:07:21.384Z,1001.42
2018-05-25T04:08:21.377Z,1001.46
2018-05-25T04:09:21.373Z,1001.45
2018-05-25T04:10:21.367Z,1001.47
2018-05-25T04:11:21.358Z,1001.45
2018-05-25T04:12:21.352Z,1001.45
2018-05-25T04:13:21.350Z,1001.44
2018-05-25T04:14:21.396Z,1001.43
2018-05-25T04:15:21.333Z,1001.43
2018-05-25T04:16:21.329Z,1001.44
2018-05-25T04:17:21.321Z,1001.43
2018-05-25T04:18:21.313Z,1001.43
2018-05-25T04:19:21.308Z,1001.47
2018-05-25T04:20:21.307Z,1001.47
2018-05-25T04:21:21.295Z,1001.48
2018-05-25T04:22:21.289Z,1001.47
2018-05-25T04:23:21.282Z,1001.51
2018-05-25T04:24:21.276Z,1001.49
2018-05-25T04:25:21.272Z,1001.45
2018-05-25T04:26:21.263Z,1001.45
2018-05-25T04:27:21.257Z,1001.48
2018-05-25T04:28:21.252Z,1001.47
2018-05-25T04:29:21.245Z,1001.46
2018-05-25T04:30:21.238Z,1001.46
2018-05-25T04:31:21.232Z,1001.48
2018-05-25T04:32:21.226Z,1001.45
2018-05-25T04:33:21.223Z,1001.51
2018-05-25T04:34:21.217Z,1001.51
2018-05-25T04:35:21.210Z,1001.45
2018-05-25T04:36:21.204Z,1001.46
2018-05-25T04:37:21.195Z,1001.46
2018-05-25T04:38:21.195Z,1001.51
2018-05-25T04:39:21.182Z,1001.50
2018-05-25T04:40:21.178Z,1001.49
2018-05-25T04:41:21.170Z,1001.50
2018-05-25T04:42:21.163Z,1001.51
2018-05-25T04:43:21.213Z,1001.50
2018-05-25T04:44:21.154Z,1001.50
2018-05-25T04:45:21.149Z,1001.50
2018-05-25T04:46:21.141Z,1001.53
2018-05-25T04:47:21.133Z,1001.53
2018-05-25T04:48:21.535Z,1001.53
2018-05-25T04:49:21.129Z,1001.54
2018-05-25T04:50:21.114Z,1001.53
2018-05-25T04:51:21.108Z,1001.53
2018-05-25T04:52:21.105Z,1001.54
2018-05-25T04:53:21.097Z,1001.51
2018-05-25T04:54:21.093Z,1001.49
2018-05-25T04:55:21.084Z,1001.55
2018-05-25T04:56:21.078Z,1001.57
2018-05-25T04:57:21.073Z,1001.57
2018-05-25T04:58:21.066Z,1001.60
2018-05-25T04:59:21.061Z,1001.64
2018-05-25T05:00:21.054Z,1001.62
2018-05-25T05:01:21.052Z,1001.63
2018-05-25T05:02:21.041Z,1001.62
2018-05-25T05:03:21.036Z,1001.63
2018-05-25T05:04:21.038Z,1001.63
2018-05-25T05:05:21.024Z,1001.60
2018-05-25T05:06:21.018Z,1001.61
2018-05-25T05:07:21.012Z,1001.66
2018-05-25T05:08:21.006Z,1001.68
2018-05-25T05:09:21.000Z,1001.68
2018-05-25T05:10:20.993Z,1001.66
2018-05-25T05:11:20.989Z,1001.70
2018-05-25T05:12:20.983Z,1001.72
2018-05-25T05:13:20.977Z,1001.75
2018-05-25T05:14:20.976Z,1001.76
2018-05-25T05:15:20.966Z,1001.77
2018-05-25T05:16:20.960Z,1001.78
2018-05-25T05:17:20.957Z,1001.82
2018-05-25T05:18:20.950Z,1001.80
2018-05-25T05:19:20.943Z,1001.82
2018-05-25T05:20:20.938Z,1001.83
2018-05-25T05:21:20.938Z,1001.83
2018-05-25T05:22:20.928Z,1001.84
2018-05-25T05:23:20.922Z,1001.87
2018-05-25T05:24:20.917Z,1001.84
2018-05-25T05:25:20.913Z,1001.85
2018-05-25T05:26:20.907Z,1001.82
2018-05-25T05:27:20.901Z,1001.84
2018-05-25T05:28:20.900Z,1001.83
2018-05-25T05:29:20.891Z,1001.87
2018-05-25T05:30:20.885Z,1001.86
2018-05-25T05:31:21.082Z,1001.86
2018-05-25T05:32:20.875Z,1001.87
2018-05-25T05:33:20.875Z,1001.90
2018-05-25T05:34:20.869Z,1001.86
2018-05-25T05:35:20.859Z,1001.86
2018-05-25T05:36:20.854Z,1001.84
2018-05-25T05:37:21.052Z,1001.87
2018-05-25T05:38:20.843Z,1001.90
2018-05-25T05:39:20.840Z,1001.92
2018-05-25T05:40:20.834Z,1001.90
2018-05-25T05:41:20.829Z,1001.83
2018-05-25T05:42:20.826Z,1001.83
2018-05-25T05:43:20.819Z,1001.85
2018-05-25T05:44:20.814Z,1001.87
2018-05-25T05:45:20.810Z,1001.84
2018-05-25T05:46:20.805Z,1001.82
2018-05-25T05:47:20.800Z,1001.81
2018-05-25T05:48:20.797Z,1001.80
2018-05-25T05:49:20.791Z,1001.77
2018-05-25T05:50:20.991Z,1001.78
2018-05-25T05:52:20.979Z,1001.78
2018-05-25T05:53:20.776Z,1001.75
2018-05-25T05:54:20.773Z,1001.71
2018-05-25T05:55:20.763Z,1001.68
2018-05-25T05:56:20.759Z,1001.68
2018-05-25T05:57:20.758Z,1001.68
2018-05-25T05:58:20.750Z,1001.69
2018-05-25T05:59:20.746Z,1001.70
2018-05-25T06:00:20.746Z,1001.67
2018-05-25T06:01:20.738Z,1001.68
2018-05-25T06:02:20.733Z,1001.71
2018-05-25T06:03:20.730Z,1001.69
2018-05-25T06:04:20.745Z,1001.69
2018-05-25T06:05:20.722Z,1001.66
2018-05-25T06:06:20.721Z,1001.66
2018-05-25T06:07:20.714Z,1001.69
2018-05-25T06:08:20.713Z,1001.68
2018-05-25T06:09:20.909Z,1001.72
2018-05-25T06:10:20.702Z,1001.72
2018-05-25T06:11:20.703Z,1001.72
2018-05-25T06:12:20.702Z,1001.79
2018-05-25T06:13:20.695Z,1001.78
2018-05-25T06:14:20.690Z,1001.83
2018-05-25T06:15:20.684Z,1001.83
2018-05-25T06:16:20.681Z,1001.84
2018-05-25T06:17:20.678Z,1001.85
2018-05-25T06:18:20.673Z,1001.90
2018-05-25T06:19:20.679Z,1001.90
2018-05-25T06:20:20.667Z,1001.93
2018-05-25T06:21:20.664Z,1001.90
2018-05-25T06:22:20.659Z,1001.92
2018-05-25T06:23:20.656Z,1001.90
2018-05-25T06:24:20.655Z,1001.96
2018-05-25T06:25:20.661Z,1001.98
2018-05-25T06:26:20.647Z,1001.94
2018-05-25T06:27:20.648Z,1001.98
2018-05-25T06:29:20.638Z,1002.04
2018-05-25T06:30:20.634Z,1002.09
2018-05-25T06:31:20.632Z,1002.07
2018-05-25T06:32:20.632Z,1002.08
2018-05-25T06:33:20.632Z,1002.08
2018-05-25T06:34:20.623Z,1002.10
2018-05-25T06:35:20.621Z,1002.10
2018-05-25T06:36:20.622Z,1002.15
2018-05-25T06:37:20.615Z,1002.08
2018-05-25T06:38:20.612Z,1002.10
2018-05-25T06:39:20.608Z,1002.19
2018-05-25T06:40:20.607Z,1002.17
2018-05-25T06:41:20.608Z,1002.18
2018-05-25T06:42:20.601Z,1002.14
2018-05-25T06:43:20.599Z,1002.16
2018-05-25T06:44:20.637Z,1002.17
2018-05-25T06:45:20.594Z,1002.11
2018-05-25T06:46:20.593Z,1002.12
2018-05-25T06:47:20.791Z,1002.14
2018-05-25T06:48:20.592Z,1002.17
2018-05-25T06:49:20.586Z,1002.14
2018-05-25T06:50:20.583Z,1002.20
2018-05-25T06:51:20.581Z,1002.19
2018-05-25T06:52:20.579Z,1002.18
2018-05-25T06:53:20.578Z,1002.22
2018-05-25T06:54:20.575Z,1002.20
2018-05-25T06:55:20.573Z,1002.26
2018-05-25T06:56:20.572Z,1002.31
2018-05-25T06:57:20.572Z,1002.28
2018-05-25T06:58:20.568Z,1002.34
2018-05-25T06:59:20.569Z,1002.31
2018-05-25T07:00:20.565Z,1002.36
2018-05-25T07:01:20.570Z,1002.36
2018-05-25T07:02:20.562Z,1002.39
2018-05-25T07:03:20.562Z,1002.39
2018-05-25T07:04:20.562Z,1002.38
2018-05-25T07:05:20.565Z,1002.38
2018-05-25T07:06:20.563Z,1002.38
2018-05-25T07:07:20.565Z,1002.37
2018-05-25T07:08:20.564Z,1002.38
2018-05-25T07:09:20.567Z,1002.39
2018-05-25T07:10:20.765Z,1002.44
2018-05-25T07:11:20.567Z,1002.44
2018-05-25T07:12:20.567Z,1002.44
2018-05-25T07:13:20.571Z,1002.45
2018-05-25T07:14:20.572Z,1002.50
2018-05-25T07:15:20.575Z,1002.50
2018-05-25T07:16:20.579Z,1002.50
2018-05-25T07:17:20.588Z,1002.57
2018-05-25T07:18:20.588Z,1002.58
2018-05-25T07:19:20.597Z,1002.60
2018-05-25T07:20:20.598Z,1002.59
2018-05-25T07:21:20.612Z,1002.57
2018-05-25T07:22:20.609Z,1002.59
2018-05-25T07:23:20.618Z,1002.60
2018-05-25T07:24:20.629Z,1002.59
2018-05-25T07:25:20.637Z,1002.58
2018-05-25T07:26:20.636Z,1002.58
2018-05-25T07:27:20.650Z,1002.58
2018-05-25T07:28:20.651Z,1002.61
2018-05-25T07:29:20.666Z,1002.59
2018-05-25T07:30:20.671Z,1002.58
2018-05-25T07:31:20.678Z,1002.60
2018-05-25T07:32:20.683Z,1002.58
2018-05-25T07:33:20.700Z,1002.54
2018-05-25T07:34:20.703Z,1002.54
2018-05-25T07:35:20.709Z,1002.56
2018-05-25T07:36:20.719Z,1002.56
2018-05-25T07:37:20.766Z,1002.56
2018-05-25T07:38:20.737Z,1002.53
2018-05-25T07:39:20.781Z,1002.49
2018-05-25T07:40:20.757Z,1002.46
2018-05-25T07:41:20.770Z,1002.47
2018-05-25T07:42:20.781Z,1002.44
2018-05-25T07:43:20.788Z,1002.51
2018-05-25T07:44:20.796Z,1002.49
2018-05-25T07:45:20.806Z,1002.46
2018-05-25T07:46:20.816Z,1002.47
2018-05-25T07:47:20.826Z,1002.50
2018-05-25T07:48:20.837Z,1002.53
2018-05-25T07:49:20.851Z,1002.55
2018-05-25T07:50:20.857Z,1002.55
2018-05-25T07:51:20.867Z,1002.57
2018-05-25T07:53:20.889Z,1002.62
2018-05-25T07:54:20.933Z,1002.62
2018-05-25T07:55:20.910Z,1002.63
2018-05-25T07:56:20.922Z,1002.62
2018-05-25T07:57:20.934Z,1002.62
2018-05-25T07:58:20.943Z,1002.60
2018-05-25T07:59:20.956Z,1002.63
2018-05-25T08:00:21.028Z,1002.61
2018-05-25T08:01:20.976Z,1002.64
2018-05-25T08:02:21.195Z,1002.61
2018-05-25T08:03:21.205Z,1002.64
2018-05-25T08:04:21.010Z,1002.57
2018-05-25T08:05:21.022Z,1002.57
2018-05-25T08:06:21.065Z,1002.56
2018-05-25T08:07:21.043Z,1002.59
2018-05-25T08:08:21.060Z,1002.59
2018-05-25T08:09:21.070Z,1002.60
2018-05-25T08:10:21.085Z,1002.60
2018-05-25T08:11:21.091Z,1002.60
2018-05-25T08:12:21.108Z,1002.62
2018-05-25T08:13:21.116Z,1002.67
2018-05-25T08:14:21.130Z,1002.67
2018-05-25T08:15:21.140Z,1002.69
2018-05-25T08:16:21.152Z,1002.68
2018-05-25T08:17:21.171Z,1002.70
2018-05-25T08:18:21.380Z,1002.69
2018-05-25T08:19:21.196Z,1002.71
2018-05-25T08:20:21.205Z,1002.70
2018-05-25T08:21:21.218Z,1002.72
2018-05-25T08:22:21.232Z,1002.71
2018-05-25T08:23:21.247Z,1002.71
2018-05-25T08:24:21.262Z,1002.73
2018-05-25T08:25:21.272Z,1002.72
2018-05-25T08:26:21.283Z,1002.69
2018-05-25T08:27:21.297Z,1002.71
2018-05-25T08:28:21.316Z,1002.70
2018-05-25T08:29:21.325Z,1002.69
2018-05-25T08:30:21.436Z,1002.67
2018-05-25T08:31:21.352Z,1002.67
2018-05-25T08:32:21.368Z,1002.67
2018-05-25T08:33:21.376Z,1002.66
2018-05-25T08:34:21.389Z,1002.68
2018-05-25T08:35:21.406Z,1002.67
2018-05-25T08:36:21.416Z,1002.70
2018-05-25T08:37:21.434Z,1002.69
2018-05-25T08:38:21.447Z,1002.66
2018-05-25T08:39:21.457Z,1002.71
2018-05-25T08:40:21.472Z,1002.76
2018-05-25T08:41:21.488Z,1002.70
2018-05-25T08:42:21.498Z,1002.71
2018-05-25T08:43:21.563Z,1002.73
2018-05-25T08:44:21.528Z,1002.68
2018-05-25T08:45:21.543Z,1002.70
2018-05-25T08:46:21.636Z,1002.72
2018-05-25T08:47:21.575Z,1002.70
2018-05-25T08:48:21.585Z,1002.65
2018-05-25T08:49:21.613Z,1002.68
2018-05-25T08:50:21.619Z,1002.69
2018-05-25T08:51:21.626Z,1002.62
2018-05-25T08:52:21.641Z,1002.68
2018-05-25T08:53:21.653Z,1002.66
2018-05-25T08:54:21.666Z,1002.68
2018-05-25T08:55:21.682Z,1002.65
2018-05-25T08:56:21.697Z,1002.64
2018-05-25T08:57:21.715Z,1002.62
2018-05-25T08:58:21.727Z,1002.62
2018-05-25T08:59:21.738Z,1002.63
2018-05-25T09:00:21.753Z,1002.64
2018-05-25T09:01:21.790Z,1002.61
2018-05-25T09:02:21.781Z,1002.64
2018-05-25T09:03:21.797Z,1002.61
2018-05-25T09:04:21.815Z,1002.63
2018-05-25T09:05:21.827Z,1002.66
2018-05-25T09:06:21.844Z,1002.59
2018-05-25T09:07:21.857Z,1002.67
2018-05-25T09:08:21.873Z,1002.65
2018-05-25T09:09:21.890Z,1002.66
2018-05-25T09:10:21.905Z,1002.68
2018-05-25T09:11:21.921Z,1002.68
2018-05-25T09:12:21.980Z,1002.69
2018-05-25T09:13:21.955Z,1002.66
2018-05-25T09:14:21.971Z,1002.72
2018-05-25T09:15:21.988Z,1002.64
2018-05-25T09:16:22.008Z,1002.65
2018-05-25T09:17:22.022Z,1002.63
2018-05-25T09:18:22.039Z,1002.67
2018-05-25T09:19:22.057Z,1002.64
2018-05-25T09:20:22.077Z,1002.64
2018-05-25T09:21:22.099Z,1002.62
2018-05-25T09:22:22.116Z,1002.61
2018-05-25T09:23:22.329Z,1002.60
2018-05-25T09:24:22.146Z,1002.66
2018-05-25T09:25:22.164Z,1002.58
2018-05-25T09:26:22.185Z,1002.60
2018-05-25T09:27:22.199Z,1002.61
2018-05-25T09:28:22.218Z,1002.59
2018-05-25T09:29:22.237Z,1002.63
2018-05-25T09:30:22.255Z,1002.67
2018-05-25T09:31:22.273Z,1002.66
2018-05-25T09:32:22.291Z,1002.67
2018-05-25T09:33:22.313Z,1002.67
2018-05-25T09:34:22.330Z,1002.63
2018-05-25T09:35:22.351Z,1002.61
2018-05-25T09:36:22.381Z,1002.62
2018-05-25T09:37:22.382Z,1002.65
2018-05-25T09:38:22.399Z,1002.65
2018-05-25T09:39:22.415Z,1002.66
2018-05-25T09:40:22.433Z,1002.67
2018-05-25T09:41:22.448Z,1002.72
2018-05-25T09:42:22.468Z,1002.68
2018-05-25T09:43:22.512Z,1002.72
2018-05-25T09:44:22.488Z,1002.76
2018-05-25T09:45:22.499Z,1002.66
2018-05-25T09:46:22.511Z,1002.69
2018-05-25T09:47:22.526Z,1002.62
2018-05-25T09:48:22.543Z,1002.69
2018-05-25T09:49:22.557Z,1002.73
2018-05-25T09:50:22.571Z,1002.72
2018-05-25T09:51:22.584Z,1002.71
2018-05-25T09:52:22.598Z,1002.74
2018-05-25T09:53:22.614Z,1002.70
2018-05-25T09:54:22.629Z,1002.65
2018-05-25T09:55:22.645Z,1002.65
2018-05-25T09:56:22.862Z,1002.66
2018-05-25T09:57:22.677Z,1002.63
2018-05-25T09:58:22.697Z,1002.67
2018-05-25T09:59:22.706Z,1002.65
2018-05-25T10:00:22.715Z,1002.62
2018-05-25T10:01:22.730Z,1002.64
2018-05-25T10:02:22.742Z,1002.63
2018-05-25T10:03:22.751Z,1002.71
2018-05-25T10:04:22.760Z,1002.68
2018-05-25T10:05:22.776Z,1002.67
2018-05-25T10:06:22.784Z,1002.65
2018-05-25T10:07:22.793Z,1002.64
2018-05-25T10:08:22.805Z,1002.61
2018-05-25T10:09:22.809Z,1002.59
2018-05-25T10:10:22.817Z,1002.55
2018-05-25T10:11:22.826Z,1002.54
2018-05-25T10:12:22.839Z,1002.54
2018-05-25T10:13:22.854Z,1002.55
2018-05-25T10:14:22.853Z,1002.55
2018-05-25T10:15:22.863Z,1002.62
2018-05-25T10:16:22.874Z,1002.61
2018-05-25T10:17:22.877Z,1002.54
2018-05-25T10:18:22.890Z,1002.60
2018-05-25T10:19:22.897Z,1002.58
2018-05-25T10:20:22.908Z,1002.55
2018-05-25T10:21:22.916Z,1002.58
2018-05-25T10:22:22.927Z,1002.63
2018-05-25T10:23:22.942Z,1002.62
2018-05-25T10:24:22.955Z,1002.56
2018-05-25T10:25:22.963Z,1002.58
2018-05-25T10:26:22.975Z,1002.59
2018-05-25T10:27:22.991Z,1002.59
2018-05-25T10:28:23.010Z,1002.61
2018-05-25T10:29:23.019Z,1002.65
2018-05-25T10:30:23.030Z,1002.66
2018-05-25T10:31:23.052Z,1002.72
2018-05-25T10:32:23.059Z,1002.56
2018-05-25T10:33:23.074Z,1002.59
2018-05-25T10:34:23.088Z,1002.56
2018-05-25T10:35:23.107Z,1002.62
2018-05-25T10:36:23.120Z,1002.65
2018-05-25T10:37:23.135Z,1002.62
2018-05-25T10:38:23.148Z,1002.63
2018-05-25T10:39:23.158Z,1002.50
2018-05-25T10:40:23.175Z,1002.55
2018-05-25T10:41:23.390Z,1002.56
2018-05-25T10:42:23.207Z,1002.57
2018-05-25T10:43:23.226Z,1002.59
2018-05-25T10:44:23.239Z,1002.58
2018-05-25T10:45:23.253Z,1002.63
2018-05-25T10:46:23.465Z,1002.63
2018-05-25T10:47:23.284Z,1002.64
2018-05-25T10:48:23.298Z,1002.64
2018-05-25T10:49:23.309Z,1002.65
2018-05-25T10:50:23.528Z,1002.66
2018-05-25T10:51:23.341Z,1002.61
2018-05-25T10:52:23.358Z,1002.64
2018-05-25T10:53:23.375Z,1002.60
2018-05-25T10:54:23.388Z,1002.61
2018-05-25T10:55:23.404Z,1002.64
2018-05-25T10:56:23.425Z,1002.65
2018-05-25T10:57:23.437Z,1002.67
2018-05-25T10:58:23.452Z,1002.65
2018-05-25T10:59:23.472Z,1002.62
2018-05-25T11:00:23.492Z,1002.57
2018-05-25T11:01:23.512Z,1002.57
2018-05-25T11:03:23.533Z,1002.62
2018-05-25T11:04:23.550Z,1002.62
2018-05-25T11:05:23.571Z,1002.69
2018-05-25T11:06:23.579Z,1002.65
2018-05-25T11:07:23.598Z,1002.64
2018-05-25T11:08:23.615Z,1002.66
2018-05-25T11:09:23.628Z,1002.69
2018-05-25T11:10:23.641Z,1002.65
2018-05-25T11:11:23.663Z,1002.61
2018-05-25T11:12:23.676Z,1002.58
2018-05-25T11:13:23.691Z,1002.58
2018-05-25T11:14:23.702Z,1002.56
2018-05-25T11:15:23.717Z,1002.53
2018-05-25T11:16:23.735Z,1002.54
2018-05-25T11:17:23.747Z,1002.51
2018-05-25T11:18:23.762Z,1002.47
2018-05-25T11:19:23.776Z,1002.44
2018-05-25T11:20:23.797Z,1002.49
2018-05-25T11:21:23.809Z,1002.52
2018-05-25T11:22:23.820Z,1002.54
2018-05-25T11:23:23.835Z,1002.51
2018-05-25T11:24:23.855Z,1002.53
2018-05-25T11:25:23.864Z,1002.52
2018-05-25T11:26:23.878Z,1002.49
2018-05-25T11:27:23.897Z,1002.49
2018-05-25T11:28:23.909Z,1002.48
2018-05-25T11:29:23.923Z,1002.45
2018-05-25T11:30:23.947Z,1002.47
2018-05-25T11:31:23.951Z,1002.44
2018-05-25T11:32:23.965Z,1002.43
2018-05-25T11:33:23.984Z,1002.44
2018-05-25T11:34:24.002Z,1002.43
2018-05-25T11:35:24.006Z,1002.43
2018-05-25T11:36:24.019Z,1002.41
2018-05-25T11:37:24.034Z,1002.42
2018-05-25T11:38:24.052Z,1002.47
2018-05-25T11:39:24.060Z,1002.42
2018-05-25T11:40:24.078Z,1002.47
2018-05-25T11:41:24.087Z,1002.47
2018-05-25T11:42:24.100Z,1002.47
2018-05-25T11:43:24.113Z,1002.46
2018-05-25T11:44:24.127Z,1002.40
2018-05-25T11:45:24.141Z,1002.38
2018-05-25T11:46:24.153Z,1002.41
2018-05-25T11:47:24.171Z,1002.39
2018-05-25T11:48:24.181Z,1002.42
2018-05-25T11:49:24.194Z,1002.38
2018-05-25T11:50:24.203Z,1002.42
2018-05-25T11:51:24.216Z,1002.37
2018-05-25T11:52:24.232Z,1002.36
2018-05-25T11:53:24.243Z,1002.34
2018-05-25T11:54:24.256Z,1002.35
2018-05-25T11:55:24.266Z,1002.31
2018-05-25T11:56:24.282Z,1002.32
2018-05-25T11:57:24.289Z,1002.32
2018-05-25T11:58:24.308Z,1002.35
2018-05-25T11:59:24.312Z,1002.31
2018-05-25T12:00:24.327Z,1002.33
2018-05-25T12:01:24.332Z,1002.34
2018-05-25T12:02:24.344Z,1002.35
2018-05-25T12:03:24.351Z,1002.29
2018-05-25T12:04:24.361Z,1002.29
2018-05-25T12:05:24.370Z,1002.27
2018-05-25T12:06:24.385Z,1002.33
2018-05-25T12:07:24.390Z,1002.30
2018-05-25T12:08:24.401Z,1002.27
2018-05-25T12:09:24.406Z,1002.25